sensor_id;sensor_type;location;lat;lon;timestamp;P1;durP1;ratioP1;P2;durP2;ratioP2
43682;SDS011;29285;52.128;21.060;2022-12-08T00:04:04;3.62;;;2.75;;
43682;SDS011;29285;52.128;21.060;2022-12-08T00:09:10;6.75;;;2.22;;
43682;SDS011;29285;52.128;21.060;2022-12-08T00:14:22;3.40;;;2.00;;
43682;SDS011;29285;52.128;21.060;2022-12-08T00:19:28;4.80;;;2.55;;
43682;SDS011;29285;52.128;21.060;2022-12-08T00:24:31;4.60;;;2.47;;
43682;SDS011;29285;52.128;21.060;2022-12-08T00:29:35;4.40;;;2.50;;
43682;SDS011;29285;52.128;21.060;2022-12-08T00:34:36;4.70;;;2.83;;
43682;SDS011;29285;52.128;21.060;2022-12-08T00:39:37;2.90;;;2.08;;
43682;SDS011;29285;52.128;21.060;2022-12-08T00:44:39;3.47;;;2.35;;
43682;SDS011;29285;52.128;21.060;2022-12-08T00:49:42;2.15;;;1.40;;
43682;SDS011;29285;52.128;21.060;2022-12-08T00:54:44;2.08;;;1.52;;
43682;SDS011;29285;52.128;21.060;2022-12-08T00:59:45;3.80;;;1.50;;
43682;SDS011;29285;52.128;21.060;2022-12-08T01:04:46;2.22;;;1.40;;
43682;SDS011;29285;52.128;21.060;2022-12-08T01:09:48;2.37;;;1.42;;
43682;SDS011;29285;52.128;21.060;2022-12-08T01:14:49;2.17;;;1.30;;
43682;SDS011;29285;52.128;21.060;2022-12-08T01:19:50;3.02;;;1.50;;
43682;SDS011;29285;52.128;21.060;2022-12-08T01:24:52;2.67;;;1.22;;
43682;SDS011;29285;52.128;21.060;2022-12-08T01:29:53;2.47;;;1.47;;
43682;SDS011;29285;52.128;21.060;2022-12-08T01:34:55;2.60;;;1.87;;
43682;SDS011;29285;52.128;21.060;2022-12-08T01:39:56;4.50;;;2.30;;
43682;SDS011;29285;52.128;21.060;2022-12-08T01:44:59;3.22;;;1.72;;
43682;SDS011;29285;52.128;21.060;2022-12-08T01:50:05;3.27;;;1.55;;
43682;SDS011;29285;52.128;21.060;2022-12-08T01:55:14;3.65;;;2.15;;
43682;SDS011;29285;52.128;21.060;2022-12-08T02:00:21;4.25;;;1.60;;
43682;SDS011;29285;52.128;21.060;2022-12-08T02:05:25;3.95;;;1.75;;
43682;SDS011;29285;52.128;21.060;2022-12-08T02:10:31;2.40;;;1.82;;
43682;SDS011;29285;52.128;21.060;2022-12-08T02:21:14;3.27;;;2.20;;
43682;SDS011;29285;52.128;21.060;2022-12-08T02:37:49;4.58;;;2.45;;
43682;SDS011;29285;52.128;21.060;2022-12-08T02:43:07;5.53;;;2.87;;
43682;SDS011;29285;52.128;21.060;2022-12-08T02:48:16;3.60;;;2.50;;
43682;SDS011;29285;52.128;21.060;2022-12-08T02:53:17;3.75;;;2.42;;
43682;SDS011;29285;52.128;21.060;2022-12-08T03:09:24;4.37;;;3.05;;
43682;SDS011;29285;52.128;21.060;2022-12-08T03:14:28;3.07;;;2.27;;
43682;SDS011;29285;52.128;21.060;2022-12-08T03:19:33;4.05;;;2.20;;
43682;SDS011;29285;52.128;21.060;2022-12-08T03:24:38;5.42;;;3.10;;
43682;SDS011;29285;52.128;21.060;2022-12-08T03:29:44;5.87;;;2.62;;
43682;SDS011;29285;52.128;21.060;2022-12-08T03:34:51;5.17;;;3.00;;
43682;SDS011;29285;52.128;21.060;2022-12-08T03:44:57;5.03;;;2.92;;
43682;SDS011;29285;52.128;21.060;2022-12-08T03:49:58;8.30;;;3.20;;
43682;SDS011;29285;52.128;21.060;2022-12-08T03:55:00;4.90;;;3.10;;
43682;SDS011;29285;52.128;21.060;2022-12-08T04:00:02;4.67;;;2.73;;
43682;SDS011;29285;52.128;21.060;2022-12-08T04:05:09;6.30;;;3.03;;
43682;SDS011;29285;52.128;21.060;2022-12-08T04:10:11;8.65;;;3.75;;
43682;SDS011;29285;52.128;21.060;2022-12-08T04:15:12;9.58;;;4.10;;
43682;SDS011;29285;52.128;21.060;2022-12-08T04:20:13;4.80;;;2.95;;
43682;SDS011;29285;52.128;21.060;2022-12-08T04:25:15;4.70;;;3.15;;
43682;SDS011;29285;52.128;21.060;2022-12-08T04:30:16;6.70;;;3.70;;
43682;SDS011;29285;52.128;21.060;2022-12-08T04:35:18;5.20;;;3.40;;
43682;SDS011;29285;52.128;21.060;2022-12-08T04:40:19;8.57;;;4.37;;
43682;SDS011;29285;52.128;21.060;2022-12-08T04:45:20;4.35;;;3.00;;
43682;SDS011;29285;52.128;21.060;2022-12-08T04:50:22;5.87;;;4.30;;
43682;SDS011;29285;52.128;21.060;2022-12-08T04:55:23;9.48;;;4.87;;
43682;SDS011;29285;52.128;21.060;2022-12-08T05:00:25;9.87;;;4.50;;
43682;SDS011;29285;52.128;21.060;2022-12-08T05:05:26;9.53;;;4.42;;
43682;SDS011;29285;52.128;21.060;2022-12-08T05:10:27;10.20;;;4.58;;
43682;SDS011;29285;52.128;21.060;2022-12-08T05:15:29;7.20;;;4.65;;
43682;SDS011;29285;52.128;21.060;2022-12-08T05:20:30;8.30;;;4.20;;
43682;SDS011;29285;52.128;21.060;2022-12-08T05:25:32;9.35;;;4.65;;
43682;SDS011;29285;52.128;21.060;2022-12-08T05:30:33;6.20;;;3.12;;
43682;SDS011;29285;52.128;21.060;2022-12-08T05:35:34;7.62;;;4.87;;
43682;SDS011;29285;52.128;21.060;2022-12-08T05:40:38;7.55;;;3.92;;
43682;SDS011;29285;52.128;21.060;2022-12-08T05:45:40;4.47;;;3.92;;
43682;SDS011;29285;52.128;21.060;2022-12-08T05:50:46;8.70;;;4.87;;
43682;SDS011;29285;52.128;21.060;2022-12-08T05:55:48;8.20;;;4.77;;
43682;SDS011;29285;52.128;21.060;2022-12-08T06:00:50;9.68;;;4.90;;
43682;SDS011;29285;52.128;21.060;2022-12-08T06:05:51;12.28;;;5.30;;
43682;SDS011;29285;52.128;21.060;2022-12-08T06:10:52;9.47;;;4.90;;
43682;SDS011;29285;52.128;21.060;2022-12-08T06:15:53;10.48;;;5.78;;
43682;SDS011;29285;52.128;21.060;2022-12-08T06:21:04;12.75;;;5.08;;
43682;SDS011;29285;52.128;21.060;2022-12-08T06:26:12;8.43;;;5.22;;
43682;SDS011;29285;52.128;21.060;2022-12-08T06:31:19;11.70;;;5.62;;
43682;SDS011;29285;52.128;21.060;2022-12-08T06:36:24;7.58;;;5.35;;
43682;SDS011;29285;52.128;21.060;2022-12-08T06:41:28;8.90;;;5.93;;
43682;SDS011;29285;52.128;21.060;2022-12-08T06:46:29;10.25;;;5.03;;
43682;SDS011;29285;52.128;21.060;2022-12-08T06:51:30;10.55;;;6.00;;
43682;SDS011;29285;52.128;21.060;2022-12-08T06:56:32;10.03;;;6.10;;
43682;SDS011;29285;52.128;21.060;2022-12-08T07:01:33;10.98;;;6.47;;
43682;SDS011;29285;52.128;21.060;2022-12-08T07:06:35;9.38;;;6.30;;
43682;SDS011;29285;52.128;21.060;2022-12-08T07:11:37;11.90;;;7.05;;
43682;SDS011;29285;52.128;21.060;2022-12-08T07:16:38;9.83;;;5.92;;
43682;SDS011;29285;52.128;21.060;2022-12-08T07:21:40;10.90;;;6.60;;
43682;SDS011;29285;52.128;21.060;2022-12-08T07:26:41;13.35;;;5.87;;
43682;SDS011;29285;52.128;21.060;2022-12-08T07:31:43;12.47;;;7.15;;
43682;SDS011;29285;52.128;21.060;2022-12-08T07:36:44;12.18;;;6.90;;
43682;SDS011;29285;52.128;21.060;2022-12-08T07:41:46;11.90;;;7.78;;
43682;SDS011;29285;52.128;21.060;2022-12-08T07:46:47;12.50;;;7.25;;
43682;SDS011;29285;52.128;21.060;2022-12-08T07:51:48;16.40;;;8.13;;
43682;SDS011;29285;52.128;21.060;2022-12-08T07:56:49;15.35;;;8.43;;
43682;SDS011;29285;52.128;21.060;2022-12-08T08:01:51;14.45;;;8.05;;
43682;SDS011;29285;52.128;21.060;2022-12-08T08:06:52;16.17;;;7.80;;
43682;SDS011;29285;52.128;21.060;2022-12-08T08:11:54;12.90;;;7.83;;
43682;SDS011;29285;52.128;21.060;2022-12-08T08:16:55;13.78;;;7.95;;
43682;SDS011;29285;52.128;21.060;2022-12-08T08:21:57;16.55;;;8.75;;
43682;SDS011;29285;52.128;21.060;2022-12-08T08:26:59;15.32;;;9.23;;
43682;SDS011;29285;52.128;21.060;2022-12-08T08:32:00;14.30;;;7.35;;
43682;SDS011;29285;52.128;21.060;2022-12-08T08:37:01;15.40;;;8.65;;
43682;SDS011;29285;52.128;21.060;2022-12-08T08:42:03;17.37;;;7.85;;
43682;SDS011;29285;52.128;21.060;2022-12-08T08:47:04;11.30;;;7.90;;
43682;SDS011;29285;52.128;21.060;2022-12-08T08:52:06;11.53;;;7.50;;
43682;SDS011;29285;52.128;21.060;2022-12-08T08:57:08;17.42;;;9.00;;
43682;SDS011;29285;52.128;21.060;2022-12-08T09:02:13;14.58;;;8.10;;
43682;SDS011;29285;52.128;21.060;2022-12-08T09:07:19;14.73;;;7.53;;
43682;SDS011;29285;52.128;21.060;2022-12-08T09:12:20;9.38;;;5.83;;
43682;SDS011;29285;52.128;21.060;2022-12-08T09:17:22;13.98;;;8.78;;
43682;SDS011;29285;52.128;21.060;2022-12-08T09:22:23;16.02;;;7.62;;
43682;SDS011;29285;52.128;21.060;2022-12-08T09:27:24;13.90;;;7.65;;
43682;SDS011;29285;52.128;21.060;2022-12-08T09:32:26;11.93;;;6.80;;
43682;SDS011;29285;52.128;21.060;2022-12-08T09:37:27;11.05;;;8.03;;
43682;SDS011;29285;52.128;21.060;2022-12-08T09:48:21;15.43;;;9.30;;
43682;SDS011;29285;52.128;21.060;2022-12-08T09:54:21;16.35;;;10.90;;
43682;SDS011;29285;52.128;21.060;2022-12-08T10:04:04;20.02;;;10.68;;
43682;SDS011;29285;52.128;21.060;2022-12-08T10:14:42;16.97;;;10.40;;
43682;SDS011;29285;52.128;21.060;2022-12-08T10:20:02;13.83;;;10.08;;
43682;SDS011;29285;52.128;21.060;2022-12-08T10:25:20;15.43;;;9.73;;
43682;SDS011;29285;52.128;21.060;2022-12-08T10:30:26;15.18;;;9.25;;
43682;SDS011;29285;52.128;21.060;2022-12-08T10:40:50;18.73;;;10.65;;
43682;SDS011;29285;52.128;21.060;2022-12-08T10:46:06;18.00;;;11.22;;
43682;SDS011;29285;52.128;21.060;2022-12-08T10:51:20;16.30;;;10.93;;
43682;SDS011;29285;52.128;21.060;2022-12-08T10:56:30;20.25;;;11.83;;
43682;SDS011;29285;52.128;21.060;2022-12-08T11:01:33;15.60;;;10.63;;
43682;SDS011;29285;52.128;21.060;2022-12-08T11:06:39;18.65;;;10.60;;
43682;SDS011;29285;52.128;21.060;2022-12-08T11:16:55;18.10;;;11.63;;
43682;SDS011;29285;52.128;21.060;2022-12-08T11:27:30;19.23;;;11.63;;
43682;SDS011;29285;52.128;21.060;2022-12-08T11:32:34;16.00;;;11.17;;
43682;SDS011;29285;52.128;21.060;2022-12-08T11:37:38;18.70;;;12.53;;
43682;SDS011;29285;52.128;21.060;2022-12-08T11:42:46;17.02;;;12.05;;
43682;SDS011;29285;52.128;21.060;2022-12-08T11:48:16;20.02;;;13.55;;
43682;SDS011;29285;52.128;21.060;2022-12-08T11:53:24;19.48;;;12.70;;
43682;SDS011;29285;52.128;21.060;2022-12-08T11:58:50;19.30;;;11.97;;
43682;SDS011;29285;52.128;21.060;2022-12-08T12:04:16;18.07;;;12.90;;
43682;SDS011;29285;52.128;21.060;2022-12-08T12:09:34;15.90;;;11.75;;
43682;SDS011;29285;52.128;21.060;2022-12-08T12:20:17;17.60;;;12.98;;
43682;SDS011;29285;52.128;21.060;2022-12-08T12:25:27;19.32;;;12.82;;
43682;SDS011;29285;52.128;21.060;2022-12-08T12:35:56;21.05;;;13.90;;
43682;SDS011;29285;52.128;21.060;2022-12-08T12:41:02;19.82;;;13.58;;
43682;SDS011;29285;52.128;21.060;2022-12-08T12:46:36;21.97;;;14.00;;
43682;SDS011;29285;52.128;21.060;2022-12-08T12:51:51;27.00;;;15.20;;
43682;SDS011;29285;52.128;21.060;2022-12-08T12:56:56;20.97;;;14.05;;
43682;SDS011;29285;52.128;21.060;2022-12-08T13:07:42;24.25;;;15.50;;
43682;SDS011;29285;52.128;21.060;2022-12-08T13:18:20;22.87;;;15.08;;
43682;SDS011;29285;52.128;21.060;2022-12-08T13:23:44;20.95;;;14.07;;
43682;SDS011;29285;52.128;21.060;2022-12-08T13:34:10;19.05;;;14.68;;
43682;SDS011;29285;52.128;21.060;2022-12-08T13:39:18;22.15;;;15.20;;
43682;SDS011;29285;52.128;21.060;2022-12-08T13:44:38;24.55;;;16.23;;
43682;SDS011;29285;52.128;21.060;2022-12-08T13:50:05;21.73;;;15.88;;
43682;SDS011;29285;52.128;21.060;2022-12-08T13:55:14;26.62;;;17.02;;
43682;SDS011;29285;52.128;21.060;2022-12-08T14:00:20;20.92;;;14.10;;
43682;SDS011;29285;52.128;21.060;2022-12-08T14:05:24;32.15;;;18.70;;
43682;SDS011;29285;52.128;21.060;2022-12-08T14:15:31;25.77;;;16.17;;
43682;SDS011;29285;52.128;21.060;2022-12-08T14:20:34;23.00;;;16.10;;
43682;SDS011;29285;52.128;21.060;2022-12-08T14:25:35;24.82;;;15.08;;
43682;SDS011;29285;52.128;21.060;2022-12-08T14:30:38;22.10;;;15.32;;
43682;SDS011;29285;52.128;21.060;2022-12-08T14:35:39;21.77;;;14.47;;
43682;SDS011;29285;52.128;21.060;2022-12-08T14:40:45;26.00;;;15.50;;
43682;SDS011;29285;52.128;21.060;2022-12-08T14:45:50;28.23;;;16.37;;
43682;SDS011;29285;52.128;21.060;2022-12-08T14:56:07;28.62;;;17.12;;
43682;SDS011;29285;52.128;21.060;2022-12-08T15:01:25;26.45;;;16.77;;
43682;SDS011;29285;52.128;21.060;2022-12-08T15:06:27;24.82;;;16.82;;
43682;SDS011;29285;52.128;21.060;2022-12-08T15:11:30;26.45;;;18.00;;
43682;SDS011;29285;52.128;21.060;2022-12-08T15:16:38;22.32;;;14.87;;
43682;SDS011;29285;52.128;21.060;2022-12-08T15:21:45;20.85;;;15.30;;
43682;SDS011;29285;52.128;21.060;2022-12-08T15:26:47;24.75;;;15.68;;
43682;SDS011;29285;52.128;21.060;2022-12-08T15:31:51;36.10;;;21.20;;
43682;SDS011;29285;52.128;21.060;2022-12-08T15:36:55;24.27;;;15.48;;
43682;SDS011;29285;52.128;21.060;2022-12-08T15:41:57;21.93;;;14.55;;
43682;SDS011;29285;52.128;21.060;2022-12-08T15:46:59;24.60;;;16.37;;
43682;SDS011;29285;52.128;21.060;2022-12-08T15:52:01;24.55;;;15.63;;
43682;SDS011;29285;52.128;21.060;2022-12-08T15:57:02;22.07;;;14.40;;
43682;SDS011;29285;52.128;21.060;2022-12-08T16:02:04;23.98;;;15.25;;
43682;SDS011;29285;52.128;21.060;2022-12-08T16:07:05;25.52;;;16.10;;
43682;SDS011;29285;52.128;21.060;2022-12-08T16:12:29;24.75;;;16.20;;
43682;SDS011;29285;52.128;21.060;2022-12-08T16:17:49;24.72;;;15.68;;
43682;SDS011;29285;52.128;21.060;2022-12-08T16:22:50;24.37;;;15.72;;
43682;SDS011;29285;52.128;21.060;2022-12-08T16:27:53;24.00;;;14.68;;
43682;SDS011;29285;52.128;21.060;2022-12-08T16:32:55;23.43;;;15.17;;
43682;SDS011;29285;52.128;21.060;2022-12-08T16:37:56;23.87;;;15.28;;
43682;SDS011;29285;52.128;21.060;2022-12-08T16:42:58;21.35;;;14.63;;
43682;SDS011;29285;52.128;21.060;2022-12-08T16:47:59;22.17;;;13.05;;
43682;SDS011;29285;52.128;21.060;2022-12-08T16:53:02;21.02;;;14.25;;
43682;SDS011;29285;52.128;21.060;2022-12-08T16:58:07;19.55;;;13.70;;
43682;SDS011;29285;52.128;21.060;2022-12-08T17:03:09;19.15;;;12.93;;
43682;SDS011;29285;52.128;21.060;2022-12-08T17:08:13;21.55;;;13.95;;
43682;SDS011;29285;52.128;21.060;2022-12-08T17:13:15;22.13;;;14.00;;
43682;SDS011;29285;52.128;21.060;2022-12-08T17:18:16;19.65;;;12.15;;
43682;SDS011;29285;52.128;21.060;2022-12-08T17:23:19;20.48;;;12.13;;
43682;SDS011;29285;52.128;21.060;2022-12-08T17:28:20;23.27;;;15.15;;
43682;SDS011;29285;52.128;21.060;2022-12-08T17:33:22;21.33;;;13.93;;
43682;SDS011;29285;52.128;21.060;2022-12-08T17:38:23;19.65;;;11.40;;
43682;SDS011;29285;52.128;21.060;2022-12-08T17:43:25;19.17;;;13.38;;
43682;SDS011;29285;52.128;21.060;2022-12-08T17:48:26;20.35;;;12.88;;
43682;SDS011;29285;52.128;21.060;2022-12-08T17:53:28;20.35;;;12.90;;
43682;SDS011;29285;52.128;21.060;2022-12-08T17:58:29;16.57;;;12.43;;
43682;SDS011;29285;52.128;21.060;2022-12-08T18:03:31;18.92;;;12.23;;
43682;SDS011;29285;52.128;21.060;2022-12-08T18:08:32;20.10;;;13.10;;
43682;SDS011;29285;52.128;21.060;2022-12-08T18:13:34;21.77;;;13.35;;
43682;SDS011;29285;52.128;21.060;2022-12-08T18:18:35;21.12;;;12.47;;
43682;SDS011;29285;52.128;21.060;2022-12-08T18:23:37;20.37;;;11.88;;
43682;SDS011;29285;52.128;21.060;2022-12-08T18:28:41;22.40;;;13.98;;
43682;SDS011;29285;52.128;21.060;2022-12-08T18:33:43;19.67;;;13.08;;
43682;SDS011;29285;52.128;21.060;2022-12-08T18:38:46;26.93;;;15.47;;
43682;SDS011;29285;52.128;21.060;2022-12-08T18:43:48;20.55;;;14.70;;
43682;SDS011;29285;52.128;21.060;2022-12-08T18:48:50;20.75;;;14.05;;
43682;SDS011;29285;52.128;21.060;2022-12-08T18:53:52;22.55;;;13.70;;
43682;SDS011;29285;52.128;21.060;2022-12-08T18:58:54;24.20;;;15.40;;
43682;SDS011;29285;52.128;21.060;2022-12-08T19:03:58;22.82;;;14.65;;
43682;SDS011;29285;52.128;21.060;2022-12-08T19:09:02;22.85;;;14.47;;
43682;SDS011;29285;52.128;21.060;2022-12-08T19:14:04;19.05;;;13.15;;
43682;SDS011;29285;52.128;21.060;2022-12-08T19:19:05;23.98;;;13.85;;
43682;SDS011;29285;52.128;21.060;2022-12-08T19:24:07;23.42;;;15.55;;
43682;SDS011;29285;52.128;21.060;2022-12-08T19:29:09;23.55;;;16.12;;
43682;SDS011;29285;52.128;21.060;2022-12-08T19:34:11;21.30;;;14.05;;
43682;SDS011;29285;52.128;21.060;2022-12-08T19:39:14;24.18;;;15.90;;
43682;SDS011;29285;52.128;21.060;2022-12-08T19:44:37;25.02;;;14.35;;
43682;SDS011;29285;52.128;21.060;2022-12-08T19:49:54;23.62;;;14.95;;
43682;SDS011;29285;52.128;21.060;2022-12-08T19:54:57;24.50;;;14.67;;
43682;SDS011;29285;52.128;21.060;2022-12-08T19:59:59;19.90;;;12.60;;
43682;SDS011;29285;52.128;21.060;2022-12-08T20:05:01;21.55;;;13.43;;
43682;SDS011;29285;52.128;21.060;2022-12-08T20:10:08;21.60;;;13.20;;
43682;SDS011;29285;52.128;21.060;2022-12-08T20:15:19;23.98;;;14.23;;
43682;SDS011;29285;52.128;21.060;2022-12-08T20:20:20;24.27;;;14.60;;
43682;SDS011;29285;52.128;21.060;2022-12-08T20:25:22;19.37;;;13.45;;
43682;SDS011;29285;52.128;21.060;2022-12-08T20:30:24;21.17;;;13.35;;
43682;SDS011;29285;52.128;21.060;2022-12-08T20:35:26;22.32;;;14.18;;
43682;SDS011;29285;52.128;21.060;2022-12-08T20:40:27;21.97;;;14.15;;
43682;SDS011;29285;52.128;21.060;2022-12-08T20:45:29;21.70;;;13.65;;
43682;SDS011;29285;52.128;21.060;2022-12-08T20:50:30;25.17;;;15.25;;
43682;SDS011;29285;52.128;21.060;2022-12-08T20:55:31;22.25;;;14.40;;
43682;SDS011;29285;52.128;21.060;2022-12-08T21:00:34;23.15;;;16.00;;
43682;SDS011;29285;52.128;21.060;2022-12-08T21:05:37;22.40;;;13.72;;
43682;SDS011;29285;52.128;21.060;2022-12-08T21:10:39;25.23;;;14.55;;
43682;SDS011;29285;52.128;21.060;2022-12-08T21:15:43;19.95;;;13.40;;
43682;SDS011;29285;52.128;21.060;2022-12-08T21:20:47;22.60;;;14.10;;
43682;SDS011;29285;52.128;21.060;2022-12-08T21:25:49;20.37;;;13.80;;
43682;SDS011;29285;52.128;21.060;2022-12-08T21:30:50;20.80;;;13.35;;
43682;SDS011;29285;52.128;21.060;2022-12-08T21:36:00;23.90;;;12.88;;
43682;SDS011;29285;52.128;21.060;2022-12-08T21:41:10;19.27;;;12.60;;
43682;SDS011;29285;52.128;21.060;2022-12-08T21:46:22;26.00;;;14.00;;
43682;SDS011;29285;52.128;21.060;2022-12-08T21:51:23;18.48;;;12.20;;
43682;SDS011;29285;52.128;21.060;2022-12-08T21:56:24;22.32;;;13.98;;
43682;SDS011;29285;52.128;21.060;2022-12-08T22:01:26;22.60;;;14.43;;
43682;SDS011;29285;52.128;21.060;2022-12-08T22:06:27;21.80;;;13.20;;
43682;SDS011;29285;52.128;21.060;2022-12-08T22:11:29;22.80;;;14.38;;
43682;SDS011;29285;52.128;21.060;2022-12-08T22:16:31;22.17;;;13.85;;
43682;SDS011;29285;52.128;21.060;2022-12-08T22:21:32;18.32;;;12.98;;
43682;SDS011;29285;52.128;21.060;2022-12-08T22:26:33;20.80;;;14.15;;
43682;SDS011;29285;52.128;21.060;2022-12-08T22:31:35;22.67;;;14.78;;
43682;SDS011;29285;52.128;21.060;2022-12-08T22:36:36;26.30;;;15.93;;
43682;SDS011;29285;52.128;21.060;2022-12-08T22:41:37;19.70;;;12.88;;
43682;SDS011;29285;52.128;21.060;2022-12-08T22:46:39;20.88;;;13.08;;
43682;SDS011;29285;52.128;21.060;2022-12-08T22:51:40;19.82;;;13.98;;
43682;SDS011;29285;52.128;21.060;2022-12-08T22:56:41;22.50;;;14.90;;
43682;SDS011;29285;52.128;21.060;2022-12-08T23:01:43;21.48;;;12.85;;
43682;SDS011;29285;52.128;21.060;2022-12-08T23:06:44;23.83;;;15.58;;
43682;SDS011;29285;52.128;21.060;2022-12-08T23:11:45;22.85;;;14.20;;
43682;SDS011;29285;52.128;21.060;2022-12-08T23:16:47;24.23;;;15.55;;
43682;SDS011;29285;52.128;21.060;2022-12-08T23:21:48;21.23;;;13.68;;
43682;SDS011;29285;52.128;21.060;2022-12-08T23:26:50;19.87;;;12.82;;
43682;SDS011;29285;52.128;21.060;2022-12-08T23:31:51;22.73;;;13.97;;
43682;SDS011;29285;52.128;21.060;2022-12-08T23:36:53;22.52;;;13.68;;
43682;SDS011;29285;52.128;21.060;2022-12-08T23:41:54;25.27;;;14.23;;
43682;SDS011;29285;52.128;21.060;2022-12-08T23:46:56;22.62;;;14.28;;
43682;SDS011;29285;52.128;21.060;2022-12-08T23:51:57;21.55;;;14.68;;
43682;SDS011;29285;52.128;21.060;2022-12-08T23:56:58;20.43;;;13.48;;
